sensor_id;sensor_type;location;lat;lon;timestamp;temperature;humidity
15819;DHT22;8010;53.986;12.106;2023-11-21T00:01:31;6.50;99.90
15819;DHT22;8010;53.986;12.106;2023-11-21T00:03:58;6.60;99.90
15819;DHT22;8010;53.986;12.106;2023-11-21T00:06:23;6.50;99.90
15819;DHT22;8010;53.986;12.106;2023-11-21T00:08:49;6.50;99.90
15819;DHT22;8010;53.986;12.106;2023-11-21T00:11:14;6.50;99.90
15819;DHT22;8010;53.986;12.106;2023-11-21T00:13:39;6.50;99.90
15819;DHT22;8010;53.986;12.106;2023-11-21T00:16:05;6.50;99.90
15819;DHT22;8010;53.986;12.106;2023-11-21T00:18:32;6.50;99.90
15819;DHT22;8010;53.986;12.106;2023-11-21T00:20:58;6.50;99.90
15819;DHT22;8010;53.986;12.106;2023-11-21T00:23:24;6.60;99.90
15819;DHT22;8010;53.986;12.106;2023-11-21T00:25:50;6.50;99.90
15819;DHT22;8010;53.986;12.106;2023-11-21T00:28:15;6.60;99.90
15819;DHT22;8010;53.986;12.106;2023-11-21T00:30:41;6.50;99.90
15819;DHT22;8010;53.986;12.106;2023-11-21T00:33:07;6.50;99.90
15819;DHT22;8010;53.986;12.106;2023-11-21T00:35:32;6.50;99.90
15819;DHT22;8010;53.986;12.106;2023-11-21T00:37:58;6.50;99.90
15819;DHT22;8010;53.986;12.106;2023-11-21T00:40:23;6.50;99.90
15819;DHT22;8010;53.986;12.106;2023-11-21T00:42:50;6.50;99.90
15819;DHT22;8010;53.986;12.106;2023-11-21T00:45:15;6.50;99.90
15819;DHT22;8010;53.986;12.106;2023-11-21T00:47:41;6.50;99.90
15819;DHT22;8010;53.986;12.106;2023-11-21T00:50:08;6.50;99.90
15819;DHT22;8010;53.986;12.106;2023-11-21T00:52:34;6.50;99.90
15819;DHT22;8010;53.986;12.106;2023-11-21T00:55:01;6.50;99.90
15819;DHT22;8010;53.986;12.106;2023-11-21T00:57:28;6.40;99.90
15819;DHT22;8010;53.986;12.106;2023-11-21T00:59:54;6.50;99.90
15819;DHT22;8010;53.986;12.106;2023-11-21T01:02:20;6.40;99.90
15819;DHT22;8010;53.986;12.106;2023-11-21T01:04:45;6.40;99.90
15819;DHT22;8010;53.986;12.106;2023-11-21T01:07:11;6.40;99.90
15819;DHT22;8010;53.986;12.106;2023-11-21T01:09:36;6.30;99.90
15819;DHT22;8010;53.986;12.106;2023-11-21T01:12:02;6.20;99.90
15819;DHT22;8010;53.986;12.106;2023-11-21T01:14:27;6.20;99.90
15819;DHT22;8010;53.986;12.106;2023-11-21T01:16:53;6.10;99.90
15819;DHT22;8010;53.986;12.106;2023-11-21T01:19:19;6.00;99.90
15819;DHT22;8010;53.986;12.106;2023-11-21T01:21:44;5.90;99.90
15819;DHT22;8010;53.986;12.106;2023-11-21T01:24:10;5.90;99.90
15819;DHT22;8010;53.986;12.106;2023-11-21T01:26:35;5.90;99.90
15819;DHT22;8010;53.986;12.106;2023-11-21T01:29:01;5.80;99.90
15819;DHT22;8010;53.986;12.106;2023-11-21T01:31:26;5.80;99.90
15819;DHT22;8010;53.986;12.106;2023-11-21T01:33:55;5.80;99.90
15819;DHT22;8010;53.986;12.106;2023-11-21T01:36:21;5.80;99.90
15819;DHT22;8010;53.986;12.106;2023-11-21T01:38:46;5.80;99.90
15819;DHT22;8010;53.986;12.106;2023-11-21T01:41:13;5.80;99.90
15819;DHT22;8010;53.986;12.106;2023-11-21T01:43:39;5.80;99.90
15819;DHT22;8010;53.986;12.106;2023-11-21T01:46:05;5.80;99.90
15819;DHT22;8010;53.986;12.106;2023-11-21T01:48:32;5.90;99.90
15819;DHT22;8010;53.986;12.106;2023-11-21T01:50:58;5.90;99.90
15819;DHT22;8010;53.986;12.106;2023-11-21T01:53:25;5.90;99.90
15819;DHT22;8010;53.986;12.106;2023-11-21T01:55:52;5.20;99.90
15819;DHT22;8010;53.986;12.106;2023-11-21T01:58:19;6.00;99.90
15819;DHT22;8010;53.986;12.106;2023-11-21T02:00:45;6.00;99.90
15819;DHT22;8010;53.986;12.106;2023-11-21T02:03:10;6.00;99.90
15819;DHT22;8010;53.986;12.106;2023-11-21T02:05:36;6.00;99.90
15819;DHT22;8010;53.986;12.106;2023-11-21T02:08:03;6.00;99.90
15819;DHT22;8010;53.986;12.106;2023-11-21T02:10:30;6.00;99.90
15819;DHT22;8010;53.986;12.106;2023-11-21T02:12:56;6.00;99.90
15819;DHT22;8010;53.986;12.106;2023-11-21T02:15:22;6.00;99.90
15819;DHT22;8010;53.986;12.106;2023-11-21T02:17:51;6.00;99.90
15819;DHT22;8010;53.986;12.106;2023-11-21T02:20:19;6.00;99.90
15819;DHT22;8010;53.986;12.106;2023-11-21T02:22:55;6.00;99.90
15819;DHT22;8010;53.986;12.106;2023-11-21T02:25:32;6.00;99.90
15819;DHT22;8010;53.986;12.106;2023-11-21T02:27:59;6.00;99.90
15819;DHT22;8010;53.986;12.106;2023-11-21T02:30:26;6.00;99.90
15819;DHT22;8010;53.986;12.106;2023-11-21T02:32:53;6.00;99.90
15819;DHT22;8010;53.986;12.106;2023-11-21T02:35:20;6.00;99.90
15819;DHT22;8010;53.986;12.106;2023-11-21T02:37:47;6.00;99.90
15819;DHT22;8010;53.986;12.106;2023-11-21T02:40:12;6.00;99.90
15819;DHT22;8010;53.986;12.106;2023-11-21T02:42:39;6.00;99.90
15819;DHT22;8010;53.986;12.106;2023-11-21T02:45:07;5.90;99.90
15819;DHT22;8010;53.986;12.106;2023-11-21T02:47:33;5.90;99.90
15819;DHT22;8010;53.986;12.106;2023-11-21T02:49:59;5.90;99.90
15819;DHT22;8010;53.986;12.106;2023-11-21T02:52:24;5.90;99.90
15819;DHT22;8010;53.986;12.106;2023-11-21T02:54:50;5.90;99.90
15819;DHT22;8010;53.986;12.106;2023-11-21T02:57:16;5.90;99.90
15819;DHT22;8010;53.986;12.106;2023-11-21T02:59:42;5.90;99.90
15819;DHT22;8010;53.986;12.106;2023-11-21T03:02:07;5.90;99.90
15819;DHT22;8010;53.986;12.106;2023-11-21T03:04:36;5.90;99.90
15819;DHT22;8010;53.986;12.106;2023-11-21T03:07:01;5.90;99.90
15819;DHT22;8010;53.986;12.106;2023-11-21T03:09:27;5.90;99.90
15819;DHT22;8010;53.986;12.106;2023-11-21T03:11:53;5.90;99.90
15819;DHT22;8010;53.986;12.106;2023-11-21T03:14:19;5.90;99.90
15819;DHT22;8010;53.986;12.106;2023-11-21T03:16:45;6.00;99.90
15819;DHT22;8010;53.986;12.106;2023-11-21T03:19:11;6.00;99.90
15819;DHT22;8010;53.986;12.106;2023-11-21T03:21:36;6.00;99.90
15819;DHT22;8010;53.986;12.106;2023-11-21T03:24:03;6.00;99.90
15819;DHT22;8010;53.986;12.106;2023-11-21T03:26:28;6.60;99.90
15819;DHT22;8010;53.986;12.106;2023-11-21T03:28:55;6.00;99.90
15819;DHT22;8010;53.986;12.106;2023-11-21T03:31:21;6.00;99.90
15819;DHT22;8010;53.986;12.106;2023-11-21T03:33:46;6.00;99.90
15819;DHT22;8010;53.986;12.106;2023-11-21T03:36:13;6.00;99.90
15819;DHT22;8010;53.986;12.106;2023-11-21T03:38:40;6.00;99.90
15819;DHT22;8010;53.986;12.106;2023-11-21T03:41:06;6.00;99.90
15819;DHT22;8010;53.986;12.106;2023-11-21T03:43:31;6.00;99.90
15819;DHT22;8010;53.986;12.106;2023-11-21T03:45:57;6.00;99.90
15819;DHT22;8010;53.986;12.106;2023-11-21T03:48:22;6.00;99.90
15819;DHT22;8010;53.986;12.106;2023-11-21T03:50:48;5.90;99.90
15819;DHT22;8010;53.986;12.106;2023-11-21T03:53:14;5.90;99.90
15819;DHT22;8010;53.986;12.106;2023-11-21T03:55:39;5.90;99.90
15819;DHT22;8010;53.986;12.106;2023-11-21T03:58:05;5.90;99.90
15819;DHT22;8010;53.986;12.106;2023-11-21T04:00:31;5.90;99.90
15819;DHT22;8010;53.986;12.106;2023-11-21T04:02:56;5.90;99.90
15819;DHT22;8010;53.986;12.106;2023-11-21T04:05:22;5.90;99.90
15819;DHT22;8010;53.986;12.106;2023-11-21T04:07:49;6.00;99.90
15819;DHT22;8010;53.986;12.106;2023-11-21T04:10:16;5.90;99.90
15819;DHT22;8010;53.986;12.106;2023-11-21T04:12:42;5.90;99.90
15819;DHT22;8010;53.986;12.106;2023-11-21T04:15:08;5.90;99.90
15819;DHT22;8010;53.986;12.106;2023-11-21T04:17:34;5.90;99.90
15819;DHT22;8010;53.986;12.106;2023-11-21T04:20:00;5.90;99.90
15819;DHT22;8010;53.986;12.106;2023-11-21T04:22:26;5.90;99.90
15819;DHT22;8010;53.986;12.106;2023-11-21T04:24:51;5.80;99.90
15819;DHT22;8010;53.986;12.106;2023-11-21T04:27:17;5.80;99.90
15819;DHT22;8010;53.986;12.106;2023-11-21T04:29:45;5.80;99.90
15819;DHT22;8010;53.986;12.106;2023-11-21T04:32:10;5.80;99.90
15819;DHT22;8010;53.986;12.106;2023-11-21T04:34:38;5.80;99.90
15819;DHT22;8010;53.986;12.106;2023-11-21T04:37:03;5.80;99.90
15819;DHT22;8010;53.986;12.106;2023-11-21T04:39:31;5.80;99.90
15819;DHT22;8010;53.986;12.106;2023-11-21T04:41:57;5.80;99.90
15819;DHT22;8010;53.986;12.106;2023-11-21T04:44:22;5.80;99.90
15819;DHT22;8010;53.986;12.106;2023-11-21T04:46:48;5.80;99.90
15819;DHT22;8010;53.986;12.106;2023-11-21T04:49:14;5.80;99.90
15819;DHT22;8010;53.986;12.106;2023-11-21T04:51:39;5.80;99.90
15819;DHT22;8010;53.986;12.106;2023-11-21T04:54:05;5.80;99.90
15819;DHT22;8010;53.986;12.106;2023-11-21T04:56:31;5.80;99.90
15819;DHT22;8010;53.986;12.106;2023-11-21T04:58:56;5.80;99.90
15819;DHT22;8010;53.986;12.106;2023-11-21T05:01:22;5.80;99.90
15819;DHT22;8010;53.986;12.106;2023-11-21T05:03:48;5.80;99.90
15819;DHT22;8010;53.986;12.106;2023-11-21T05:06:14;5.70;99.90
15819;DHT22;8010;53.986;12.106;2023-11-21T05:08:40;5.70;99.90
15819;DHT22;8010;53.986;12.106;2023-11-21T05:11:06;5.70;99.90
15819;DHT22;8010;53.986;12.106;2023-11-21T05:13:36;5.80;99.90
15819;DHT22;8010;53.986;12.106;2023-11-21T05:16:01;5.70;99.90
15819;DHT22;8010;53.986;12.106;2023-11-21T05:18:29;5.70;99.90
15819;DHT22;8010;53.986;12.106;2023-11-21T05:20:55;5.70;99.90
15819;DHT22;8010;53.986;12.106;2023-11-21T05:23:21;5.70;99.90
15819;DHT22;8010;53.986;12.106;2023-11-21T05:25:47;5.70;99.90
15819;DHT22;8010;53.986;12.106;2023-11-21T05:28:12;5.70;99.90
15819;DHT22;8010;53.986;12.106;2023-11-21T05:30:38;5.70;99.90
15819;DHT22;8010;53.986;12.106;2023-11-21T05:33:05;5.70;99.90
15819;DHT22;8010;53.986;12.106;2023-11-21T05:35:30;5.60;99.90
15819;DHT22;8010;53.986;12.106;2023-11-21T05:37:56;5.60;99.90
15819;DHT22;8010;53.986;12.106;2023-11-21T05:40:21;5.60;99.90
15819;DHT22;8010;53.986;12.106;2023-11-21T05:42:47;5.60;99.90
15819;DHT22;8010;53.986;12.106;2023-11-21T05:45:13;5.60;99.90
15819;DHT22;8010;53.986;12.106;2023-11-21T05:47:41;5.60;99.90
15819;DHT22;8010;53.986;12.106;2023-11-21T05:50:08;5.60;99.90
15819;DHT22;8010;53.986;12.106;2023-11-21T05:52:40;5.60;99.90
15819;DHT22;8010;53.986;12.106;2023-11-21T05:55:07;5.60;99.90
15819;DHT22;8010;53.986;12.106;2023-11-21T05:57:33;5.50;99.90
15819;DHT22;8010;53.986;12.106;2023-11-21T05:59:59;5.50;99.90
15819;DHT22;8010;53.986;12.106;2023-11-21T06:02:25;5.50;99.90
15819;DHT22;8010;53.986;12.106;2023-11-21T06:04:51;5.50;99.90
15819;DHT22;8010;53.986;12.106;2023-11-21T06:07:16;5.50;99.90
15819;DHT22;8010;53.986;12.106;2023-11-21T06:09:42;5.50;99.90
15819;DHT22;8010;53.986;12.106;2023-11-21T06:12:09;5.50;99.90
15819;DHT22;8010;53.986;12.106;2023-11-21T06:14:34;5.50;99.90
15819;DHT22;8010;53.986;12.106;2023-11-21T06:17:00;5.50;99.90
15819;DHT22;8010;53.986;12.106;2023-11-21T06:19:26;5.50;99.90
15819;DHT22;8010;53.986;12.106;2023-11-21T06:21:51;5.50;99.90
15819;DHT22;8010;53.986;12.106;2023-11-21T06:24:17;5.50;99.90
15819;DHT22;8010;53.986;12.106;2023-11-21T06:26:42;5.50;99.90
15819;DHT22;8010;53.986;12.106;2023-11-21T06:29:09;5.50;99.90
15819;DHT22;8010;53.986;12.106;2023-11-21T06:31:36;5.50;99.90
15819;DHT22;8010;53.986;12.106;2023-11-21T06:34:01;5.50;99.90
15819;DHT22;8010;53.986;12.106;2023-11-21T06:36:28;5.50;99.90
15819;DHT22;8010;53.986;12.106;2023-11-21T06:38:54;5.40;99.90
15819;DHT22;8010;53.986;12.106;2023-11-21T06:41:20;5.40;99.90
15819;DHT22;8010;53.986;12.106;2023-11-21T06:43:46;5.30;99.90
15819;DHT22;8010;53.986;12.106;2023-11-21T06:46:12;5.30;99.90
15819;DHT22;8010;53.986;12.106;2023-11-21T06:48:42;5.30;99.90
15819;DHT22;8010;53.986;12.106;2023-11-21T06:51:07;5.20;99.90
15819;DHT22;8010;53.986;12.106;2023-11-21T06:53:33;5.20;99.90
15819;DHT22;8010;53.986;12.106;2023-11-21T06:55:59;5.20;99.90
15819;DHT22;8010;53.986;12.106;2023-11-21T06:58:24;5.10;99.90
15819;DHT22;8010;53.986;12.106;2023-11-21T07:00:50;5.10;99.90
15819;DHT22;8010;53.986;12.106;2023-11-21T07:03:16;5.10;99.90
15819;DHT22;8010;53.986;12.106;2023-11-21T07:05:44;5.00;99.90
15819;DHT22;8010;53.986;12.106;2023-11-21T07:08:10;5.10;99.90
15819;DHT22;8010;53.986;12.106;2023-11-21T07:10:35;5.00;99.90
15819;DHT22;8010;53.986;12.106;2023-11-21T07:13:02;5.00;99.90
15819;DHT22;8010;53.986;12.106;2023-11-21T07:15:28;5.00;99.90
15819;DHT22;8010;53.986;12.106;2023-11-21T07:17:53;5.00;99.90
15819;DHT22;8010;53.986;12.106;2023-11-21T07:20:19;4.90;99.90
15819;DHT22;8010;53.986;12.106;2023-11-21T07:22:45;4.90;99.90
15819;DHT22;8010;53.986;12.106;2023-11-21T07:25:11;4.90;99.90
15819;DHT22;8010;53.986;12.106;2023-11-21T07:27:37;4.90;99.90
15819;DHT22;8010;53.986;12.106;2023-11-21T07:30:03;4.90;99.90
15819;DHT22;8010;53.986;12.106;2023-11-21T07:32:31;4.90;99.90
15819;DHT22;8010;53.986;12.106;2023-11-21T07:34:57;4.90;99.90
15819;DHT22;8010;53.986;12.106;2023-11-21T07:37:24;4.90;99.90
15819;DHT22;8010;53.986;12.106;2023-11-21T07:39:51;4.90;99.90
15819;DHT22;8010;53.986;12.106;2023-11-21T07:42:23;4.90;99.90
15819;DHT22;8010;53.986;12.106;2023-11-21T07:44:48;5.00;99.90
15819;DHT22;8010;53.986;12.106;2023-11-21T07:47:15;5.00;99.90
15819;DHT22;8010;53.986;12.106;2023-11-21T07:49:41;5.00;99.90
15819;DHT22;8010;53.986;12.106;2023-11-21T07:52:09;5.10;99.90
15819;DHT22;8010;53.986;12.106;2023-11-21T07:54:35;5.10;99.90
15819;DHT22;8010;53.986;12.106;2023-11-21T07:57:01;5.10;99.90
15819;DHT22;8010;53.986;12.106;2023-11-21T07:59:28;5.20;99.90
15819;DHT22;8010;53.986;12.106;2023-11-21T08:01:53;5.20;99.90
15819;DHT22;8010;53.986;12.106;2023-11-21T08:04:19;5.30;99.90
15819;DHT22;8010;53.986;12.106;2023-11-21T08:06:44;5.40;99.90
15819;DHT22;8010;53.986;12.106;2023-11-21T08:09:10;5.40;99.90
15819;DHT22;8010;53.986;12.106;2023-11-21T08:11:37;5.50;99.90
15819;DHT22;8010;53.986;12.106;2023-11-21T08:14:04;5.70;99.90
15819;DHT22;8010;53.986;12.106;2023-11-21T08:16:30;5.80;99.90
15819;DHT22;8010;53.986;12.106;2023-11-21T08:18:55;6.00;99.90
15819;DHT22;8010;53.986;12.106;2023-11-21T08:21:22;6.20;99.90
15819;DHT22;8010;53.986;12.106;2023-11-21T08:23:50;6.30;99.90
15819;DHT22;8010;53.986;12.106;2023-11-21T08:26:19;6.40;99.90
15819;DHT22;8010;53.986;12.106;2023-11-21T08:28:45;6.40;99.90
15819;DHT22;8010;53.986;12.106;2023-11-21T08:31:12;6.50;99.90
15819;DHT22;8010;53.986;12.106;2023-11-21T08:33:38;6.50;99.90
15819;DHT22;8010;53.986;12.106;2023-11-21T08:36:07;6.50;99.90
15819;DHT22;8010;53.986;12.106;2023-11-21T08:38:33;6.50;99.90
15819;DHT22;8010;53.986;12.106;2023-11-21T08:41:06;6.50;99.90
15819;DHT22;8010;53.986;12.106;2023-11-21T08:43:37;6.50;99.90
15819;DHT22;8010;53.986;12.106;2023-11-21T08:46:08;6.50;99.90
15819;DHT22;8010;53.986;12.106;2023-11-21T08:48:36;6.40;99.90
15819;DHT22;8010;53.986;12.106;2023-11-21T08:51:03;6.50;99.90
15819;DHT22;8010;53.986;12.106;2023-11-21T08:53:29;6.40;99.90
15819;DHT22;8010;53.986;12.106;2023-11-21T08:55:56;6.50;99.90
15819;DHT22;8010;53.986;12.106;2023-11-21T08:58:22;6.50;99.90
15819;DHT22;8010;53.986;12.106;2023-11-21T09:00:47;6.50;99.90
15819;DHT22;8010;53.986;12.106;2023-11-21T09:03:13;6.60;99.90
15819;DHT22;8010;53.986;12.106;2023-11-21T09:05:39;6.60;99.90
15819;DHT22;8010;53.986;12.106;2023-11-21T09:08:05;6.70;99.90
15819;DHT22;8010;53.986;12.106;2023-11-21T09:10:30;6.70;99.90
15819;DHT22;8010;53.986;12.106;2023-11-21T09:12:56;6.80;99.90
15819;DHT22;8010;53.986;12.106;2023-11-21T09:15:22;6.80;99.90
15819;DHT22;8010;53.986;12.106;2023-11-21T09:17:48;6.80;99.90
15819;DHT22;8010;53.986;12.106;2023-11-21T09:20:13;6.80;99.90
15819;DHT22;8010;53.986;12.106;2023-11-21T09:22:40;6.80;99.90
15819;DHT22;8010;53.986;12.106;2023-11-21T09:25:06;6.80;99.90
15819;DHT22;8010;53.986;12.106;2023-11-21T09:27:34;6.80;99.90
15819;DHT22;8010;53.986;12.106;2023-11-21T09:30:01;6.80;99.90
15819;DHT22;8010;53.986;12.106;2023-11-21T09:32:26;6.80;99.90
15819;DHT22;8010;53.986;12.106;2023-11-21T09:34:52;6.80;99.90
15819;DHT22;8010;53.986;12.106;2023-11-21T09:37:20;6.90;99.90
15819;DHT22;8010;53.986;12.106;2023-11-21T09:39:46;6.90;99.90
15819;DHT22;8010;53.986;12.106;2023-11-21T09:42:17;7.00;99.90
15819;DHT22;8010;53.986;12.106;2023-11-21T09:44:54;7.00;99.90
15819;DHT22;8010;53.986;12.106;2023-11-21T09:47:23;7.10;99.90
15819;DHT22;8010;53.986;12.106;2023-11-21T09:49:49;7.10;99.90
15819;DHT22;8010;53.986;12.106;2023-11-21T09:52:26;7.10;99.90
15819;DHT22;8010;53.986;12.106;2023-11-21T09:54:52;7.20;99.90
15819;DHT22;8010;53.986;12.106;2023-11-21T09:57:20;7.30;99.90
15819;DHT22;8010;53.986;12.106;2023-11-21T09:59:50;7.30;99.90
15819;DHT22;8010;53.986;12.106;2023-11-21T10:02:17;7.30;99.90
15819;DHT22;8010;53.986;12.106;2023-11-21T10:04:45;7.30;99.90
15819;DHT22;8010;53.986;12.106;2023-11-21T10:07:12;7.20;99.90
15819;DHT22;8010;53.986;12.106;2023-11-21T10:09:40;7.20;99.90
15819;DHT22;8010;53.986;12.106;2023-11-21T10:12:07;7.20;99.90
15819;DHT22;8010;53.986;12.106;2023-11-21T10:14:35;7.20;99.90
15819;DHT22;8010;53.986;12.106;2023-11-21T10:17:02;7.20;99.90
15819;DHT22;8010;53.986;12.106;2023-11-21T10:19:29;7.20;99.90
15819;DHT22;8010;53.986;12.106;2023-11-21T10:21:55;7.20;99.90
15819;DHT22;8010;53.986;12.106;2023-11-21T10:24:23;7.20;99.90
15819;DHT22;8010;53.986;12.106;2023-11-21T10:26:48;7.20;99.90
15819;DHT22;8010;53.986;12.106;2023-11-21T10:29:16;7.30;99.90
15819;DHT22;8010;53.986;12.106;2023-11-21T10:31:49;7.30;99.90
15819;DHT22;8010;53.986;12.106;2023-11-21T10:34:17;7.30;99.90
15819;DHT22;8010;53.986;12.106;2023-11-21T10:36:44;7.40;99.90
15819;DHT22;8010;53.986;12.106;2023-11-21T10:39:16;7.40;99.90
15819;DHT22;8010;53.986;12.106;2023-11-21T10:41:46;7.50;99.90
15819;DHT22;8010;53.986;12.106;2023-11-21T10:44:16;7.50;99.90
15819;DHT22;8010;53.986;12.106;2023-11-21T10:46:50;7.50;99.90
15819;DHT22;8010;53.986;12.106;2023-11-21T10:49:20;7.50;99.90
15819;DHT22;8010;53.986;12.106;2023-11-21T10:51:46;7.50;99.90
15819;DHT22;8010;53.986;12.106;2023-11-21T10:54:17;7.50;99.90
15819;DHT22;8010;53.986;12.106;2023-11-21T10:56:44;7.50;99.90
15819;DHT22;8010;53.986;12.106;2023-11-21T10:59:10;7.50;99.90
15819;DHT22;8010;53.986;12.106;2023-11-21T11:01:43;7.50;99.90
15819;DHT22;8010;53.986;12.106;2023-11-21T11:04:10;7.60;99.90
15819;DHT22;8010;53.986;12.106;2023-11-21T11:06:43;7.60;99.90
15819;DHT22;8010;53.986;12.106;2023-11-21T11:09:10;7.70;99.90
15819;DHT22;8010;53.986;12.106;2023-11-21T11:11:42;7.70;99.90
15819;DHT22;8010;53.986;12.106;2023-11-21T11:14:11;7.80;99.90
15819;DHT22;8010;53.986;12.106;2023-11-21T11:16:38;7.90;99.90
15819;DHT22;8010;53.986;12.106;2023-11-21T11:19:07;7.90;99.90
15819;DHT22;8010;53.986;12.106;2023-11-21T11:22:02;7.90;99.90
15819;DHT22;8010;53.986;12.106;2023-11-21T11:27:37;8.00;99.90
15819;DHT22;8010;53.986;12.106;2023-11-21T11:30:27;8.00;99.90
15819;DHT22;8010;53.986;12.106;2023-11-21T11:35:42;8.00;99.90
15819;DHT22;8010;53.986;12.106;2023-11-21T11:38:12;8.00;99.90
15819;DHT22;8010;53.986;12.106;2023-11-21T11:40:40;8.00;99.90
15819;DHT22;8010;53.986;12.106;2023-11-21T11:43:06;8.00;99.90
15819;DHT22;8010;53.986;12.106;2023-11-21T11:45:33;8.00;99.90
15819;DHT22;8010;53.986;12.106;2023-11-21T11:48:00;7.90;99.90
15819;DHT22;8010;53.986;12.106;2023-11-21T11:50:26;8.00;99.90
15819;DHT22;8010;53.986;12.106;2023-11-21T11:53:14;8.00;99.90
15819;DHT22;8010;53.986;12.106;2023-11-21T11:55:40;8.00;99.90
15819;DHT22;8010;53.986;12.106;2023-11-21T11:58:07;8.00;99.90
15819;DHT22;8010;53.986;12.106;2023-11-21T12:00:34;8.00;99.90
15819;DHT22;8010;53.986;12.106;2023-11-21T12:03:03;8.00;99.90
15819;DHT22;8010;53.986;12.106;2023-11-21T12:05:31;8.00;99.90
15819;DHT22;8010;53.986;12.106;2023-11-21T12:08:00;8.00;99.90
15819;DHT22;8010;53.986;12.106;2023-11-21T12:10:28;8.00;99.90
15819;DHT22;8010;53.986;12.106;2023-11-21T12:12:58;8.00;99.90
15819;DHT22;8010;53.986;12.106;2023-11-21T12:15:24;8.00;99.90
15819;DHT22;8010;53.986;12.106;2023-11-21T12:17:51;8.10;99.90
15819;DHT22;8010;53.986;12.106;2023-11-21T12:20:22;8.20;99.90
15819;DHT22;8010;53.986;12.106;2023-11-21T12:22:55;8.30;99.90
15819;DHT22;8010;53.986;12.106;2023-11-21T12:25:25;8.40;99.90
15819;DHT22;8010;53.986;12.106;2023-11-21T12:27:55;8.40;99.90
15819;DHT22;8010;53.986;12.106;2023-11-21T12:30:23;8.30;99.90
15819;DHT22;8010;53.986;12.106;2023-11-21T12:32:52;8.20;99.90
15819;DHT22;8010;53.986;12.106;2023-11-21T12:35:19;8.10;99.90
15819;DHT22;8010;53.986;12.106;2023-11-21T12:37:46;8.00;99.90
15819;DHT22;8010;53.986;12.106;2023-11-21T12:40:12;7.90;99.90
15819;DHT22;8010;53.986;12.106;2023-11-21T12:42:41;7.80;99.90
15819;DHT22;8010;53.986;12.106;2023-11-21T12:45:21;7.80;99.90
15819;DHT22;8010;53.986;12.106;2023-11-21T12:47:54;7.70;99.90
15819;DHT22;8010;53.986;12.106;2023-11-21T12:50:21;7.70;99.90
15819;DHT22;8010;53.986;12.106;2023-11-21T12:52:50;7.70;99.90
15819;DHT22;8010;53.986;12.106;2023-11-21T12:55:20;7.80;99.90
15819;DHT22;8010;53.986;12.106;2023-11-21T12:57:54;7.90;99.90
15819;DHT22;8010;53.986;12.106;2023-11-21T13:00:34;8.00;99.90
15819;DHT22;8010;53.986;12.106;2023-11-21T13:03:03;8.00;99.90
15819;DHT22;8010;53.986;12.106;2023-11-21T13:05:32;7.90;99.90
15819;DHT22;8010;53.986;12.106;2023-11-21T13:07:59;7.90;99.90
15819;DHT22;8010;53.986;12.106;2023-11-21T13:10:28;7.70;99.90
15819;DHT22;8010;53.986;12.106;2023-11-21T13:13:00;7.60;99.90
15819;DHT22;8010;53.986;12.106;2023-11-21T13:15:27;7.40;99.90
15819;DHT22;8010;53.986;12.106;2023-11-21T13:17:53;7.30;99.90
15819;DHT22;8010;53.986;12.106;2023-11-21T13:20:19;7.20;99.90
15819;DHT22;8010;53.986;12.106;2023-11-21T13:22:56;7.00;99.90
15819;DHT22;8010;53.986;12.106;2023-11-21T13:25:27;6.90;99.90
15819;DHT22;8010;53.986;12.106;2023-11-21T13:27:55;6.90;99.90
15819;DHT22;8010;53.986;12.106;2023-11-21T13:30:22;6.80;99.90
15819;DHT22;8010;53.986;12.106;2023-11-21T13:33:08;6.70;99.90
15819;DHT22;8010;53.986;12.106;2023-11-21T13:35:37;6.60;99.90
15819;DHT22;8010;53.986;12.106;2023-11-21T13:38:14;6.60;99.90
15819;DHT22;8010;53.986;12.106;2023-11-21T13:40:46;6.50;99.90
15819;DHT22;8010;53.986;12.106;2023-11-21T13:43:16;6.50;99.90
15819;DHT22;8010;53.986;12.106;2023-11-21T13:45:44;6.40;99.90
15819;DHT22;8010;53.986;12.106;2023-11-21T13:48:12;6.40;99.90
15819;DHT22;8010;53.986;12.106;2023-11-21T13:50:42;6.40;99.90
15819;DHT22;8010;53.986;12.106;2023-11-21T13:53:21;6.30;99.90
15819;DHT22;8010;53.986;12.106;2023-11-21T13:55:57;6.30;99.90
15819;DHT22;8010;53.986;12.106;2023-11-21T13:58:25;6.30;99.90
15819;DHT22;8010;53.986;12.106;2023-11-21T14:01:10;6.30;99.90
15819;DHT22;8010;53.986;12.106;2023-11-21T14:03:42;6.20;99.90
15819;DHT22;8010;53.986;12.106;2023-11-21T14:06:17;6.20;99.90
15819;DHT22;8010;53.986;12.106;2023-11-21T14:08:50;6.10;99.90
15819;DHT22;8010;53.986;12.106;2023-11-21T14:11:15;6.10;99.90
15819;DHT22;8010;53.986;12.106;2023-11-21T14:13:43;6.10;99.90
15819;DHT22;8010;53.986;12.106;2023-11-21T14:16:13;6.00;99.90
15819;DHT22;8010;53.986;12.106;2023-11-21T14:18:39;5.90;99.90
15819;DHT22;8010;53.986;12.106;2023-11-21T14:21:18;5.90;99.90
15819;DHT22;8010;53.986;12.106;2023-11-21T14:23:43;5.80;99.90
15819;DHT22;8010;53.986;12.106;2023-11-21T14:26:11;5.70;99.90
15819;DHT22;8010;53.986;12.106;2023-11-21T14:28:43;5.70;99.90
15819;DHT22;8010;53.986;12.106;2023-11-21T14:31:08;5.60;99.90
15819;DHT22;8010;53.986;12.106;2023-11-21T14:33:39;5.60;99.90
15819;DHT22;8010;53.986;12.106;2023-11-21T14:36:06;5.60;99.90
15819;DHT22;8010;53.986;12.106;2023-11-21T14:38:33;5.60;99.90
15819;DHT22;8010;53.986;12.106;2023-11-21T14:40:59;5.50;99.90
15819;DHT22;8010;53.986;12.106;2023-11-21T14:43:24;5.50;99.90
15819;DHT22;8010;53.986;12.106;2023-11-21T14:45:51;5.40;99.90
15819;DHT22;8010;53.986;12.106;2023-11-21T14:48:16;5.40;99.90
15819;DHT22;8010;53.986;12.106;2023-11-21T14:50:51;5.40;99.90
15819;DHT22;8010;53.986;12.106;2023-11-21T14:53:29;5.40;99.90
15819;DHT22;8010;53.986;12.106;2023-11-21T14:56:22;5.50;99.90
15819;DHT22;8010;53.986;12.106;2023-11-21T14:58:59;5.50;99.90
15819;DHT22;8010;53.986;12.106;2023-11-21T15:01:32;5.40;99.90
15819;DHT22;8010;53.986;12.106;2023-11-21T15:04:10;5.40;99.90
15819;DHT22;8010;53.986;12.106;2023-11-21T15:06:49;5.40;99.90
15819;DHT22;8010;53.986;12.106;2023-11-21T15:09:16;5.40;99.90
15819;DHT22;8010;53.986;12.106;2023-11-21T15:12:02;5.30;99.90
15819;DHT22;8010;53.986;12.106;2023-11-21T15:14:45;5.30;99.90
15819;DHT22;8010;53.986;12.106;2023-11-21T15:17:14;5.30;99.90
15819;DHT22;8010;53.986;12.106;2023-11-21T15:19:53;5.20;99.90
15819;DHT22;8010;53.986;12.106;2023-11-21T15:22:20;5.20;99.90
15819;DHT22;8010;53.986;12.106;2023-11-21T15:24:46;5.20;99.90
15819;DHT22;8010;53.986;12.106;2023-11-21T15:27:16;5.20;99.90
15819;DHT22;8010;53.986;12.106;2023-11-21T15:29:44;5.10;99.90
15819;DHT22;8010;53.986;12.106;2023-11-21T15:32:10;5.10;99.90
15819;DHT22;8010;53.986;12.106;2023-11-21T15:34:37;5.10;99.90
15819;DHT22;8010;53.986;12.106;2023-11-21T15:37:04;5.10;99.90
15819;DHT22;8010;53.986;12.106;2023-11-21T15:39:31;5.10;99.90
15819;DHT22;8010;53.986;12.106;2023-11-21T15:41:57;5.10;99.90
15819;DHT22;8010;53.986;12.106;2023-11-21T15:44:24;5.10;99.90
15819;DHT22;8010;53.986;12.106;2023-11-21T15:46:52;5.10;99.90
15819;DHT22;8010;53.986;12.106;2023-11-21T15:49:17;5.10;99.90
15819;DHT22;8010;53.986;12.106;2023-11-21T15:51:47;5.10;99.90
15819;DHT22;8010;53.986;12.106;2023-11-21T15:54:19;5.00;99.90